Terminal Aerodrome Forecast
Issued by NWS Cleveland, OH

Home | Current Version | Previous Version | Text Only | Print | Product List | Glossary Off
Versions: 1 2 3 4 5 6 7 8 9 10 11 12 13 14 15 16 17 18

000
FTUS41 KCLE 281737
TAFTOL
TAF
KTOL 281737Z 2818/2918 32012G18KT P6SM FEW035
     FM282100 30008KT P6SM SKC
     FM290000 VRB03KT P6SM FEW250
     FM291000 14008KT P6SM SCT080 OVC120
     FM291500 11010KT P6SM VCSH BKN040 OVC080=

USA.gov is the U.S. government's official web portal to all federal, state and local government web resources and services.